createdAt,value
2017-10-12T00:02:03.037Z,99179.73
2017-10-12T00:04:30.890Z,99188.31
2017-10-12T00:06:58.344Z,99176.73
2017-10-12T00:09:25.724Z,99175.23
2017-10-12T00:11:53.191Z,99173.38
2017-10-12T00:14:20.911Z,99173.72
2017-10-12T00:16:48.324Z,99168.11
2017-10-12T00:19:15.724Z,99162.89
2017-10-12T00:21:43.160Z,99168.85
2017-10-12T00:24:10.580Z,99175.94
2017-10-12T00:26:37.985Z,99172.28
2017-10-12T00:29:05.418Z,99179.28
2017-10-12T00:31:32.807Z,99178.22
2017-10-12T00:34:00.237Z,99183.44
2017-10-12T00:36:27.628Z,99179.38
2017-10-12T00:38:55.044Z,99181.79
2017-10-12T00:41:22.447Z,99183.16
2017-10-12T00:43:49.905Z,99179.59
2017-10-12T00:46:17.300Z,99181.84
2017-10-12T00:48:44.715Z,99183.34
2017-10-12T00:51:12.143Z,99176.23
2017-10-12T00:53:39.582Z,99175.30
2017-10-12T00:56:07.039Z,99182.50
2017-10-12T00:58:34.443Z,99138.84
2017-10-12T01:01:01.909Z,99169.58
2017-10-12T01:03:29.320Z,99172.34
2017-10-12T01:05:56.747Z,99173.45
2017-10-12T01:08:24.139Z,99172.55
2017-10-12T01:10:51.579Z,99168.20
2017-10-12T01:13:18.987Z,99180.98
2017-10-12T01:15:46.393Z,99181.30
2017-10-12T01:18:13.960Z,99179.27
2017-10-12T01:20:41.375Z,99178.10
2017-10-12T01:23:08.809Z,99174.22
2017-10-12T01:25:36.206Z,99174.24
2017-10-12T01:28:03.623Z,99168.48
2017-10-12T01:30:31.019Z,99164.23
2017-10-12T01:32:58.456Z,99165.14
2017-10-12T01:35:25.856Z,99143.89
2017-10-12T01:37:53.262Z,99148.45
2017-10-12T01:40:20.730Z,99161.48
2017-10-12T01:42:48.129Z,99157.49
2017-10-12T01:45:15.555Z,99155.16
2017-10-12T01:47:42.967Z,99153.25
2017-10-12T01:50:10.400Z,99139.97
2017-10-12T01:52:37.809Z,99137.99
2017-10-12T01:55:05.226Z,99137.44
2017-10-12T01:57:32.631Z,99132.77
2017-10-12T02:00:00.068Z,99127.74
2017-10-12T02:02:27.501Z,99123.17
2017-10-12T02:04:55.032Z,99120.44
2017-10-12T02:07:22.430Z,99127.30
2017-10-12T02:09:49.863Z,99131.16
2017-10-12T02:12:17.308Z,99134.44
2017-10-12T02:14:44.701Z,99134.73
2017-10-12T02:17:12.136Z,99123.70
2017-10-12T02:19:39.533Z,99129.84
2017-10-12T02:22:06.969Z,99127.31
2017-10-12T02:24:34.383Z,99124.40
2017-10-12T02:27:01.807Z,99128.12
2017-10-12T02:29:29.212Z,99124.82
2017-10-12T02:31:56.621Z,99125.20
2017-10-12T02:34:24.015Z,99133.81
2017-10-12T02:36:51.452Z,99134.05
2017-10-12T02:39:18.869Z,99137.75
2017-10-12T02:41:46.288Z,99136.05
2017-10-12T02:44:13.724Z,99127.66
2017-10-12T02:46:41.133Z,99142.77
2017-10-12T02:49:08.555Z,99146.61
2017-10-12T02:51:35.944Z,99151.53
2017-10-12T02:54:03.380Z,99152.52
2017-10-12T02:56:30.768Z,99148.48
2017-10-12T02:58:58.236Z,99145.06
2017-10-12T03:01:25.630Z,99146.95
2017-10-12T03:03:53.067Z,99141.59
2017-10-12T03:06:20.460Z,99129.58
2017-10-12T03:08:47.885Z,99150.59
2017-10-12T03:11:15.267Z,99153.92
2017-10-12T03:13:42.702Z,99147.66
2017-10-12T03:16:10.119Z,99143.34
2017-10-12T03:18:37.510Z,99104.94
2017-10-12T03:21:04.927Z,99140.99
2017-10-12T03:23:32.332Z,99147.23
2017-10-12T03:25:59.751Z,99166.27
2017-10-12T03:28:27.146Z,99182.31
2017-10-12T03:30:54.581Z,99180.29
2017-10-12T03:33:21.966Z,99178.86
2017-10-12T03:35:49.421Z,99183.22
2017-10-12T03:38:16.820Z,99191.91
2017-10-12T03:40:44.231Z,99190.70
2017-10-12T03:43:11.619Z,99197.52
2017-10-12T03:45:39.039Z,99200.34
2017-10-12T03:48:06.472Z,99202.30
2017-10-12T03:50:33.877Z,99201.22
2017-10-12T03:53:01.312Z,99204.52
2017-10-12T03:55:28.695Z,99204.41
2017-10-12T03:57:56.115Z,99203.47
2017-10-12T04:00:23.515Z,99202.86
2017-10-12T04:02:50.938Z,99197.99
2017-10-12T04:05:18.362Z,99194.48
2017-10-12T04:07:45.771Z,99188.28
2017-10-12T04:10:13.199Z,99184.77
2017-10-12T04:12:40.664Z,99163.64
2017-10-12T04:15:08.056Z,99182.34
2017-10-12T04:17:35.468Z,99170.37
2017-10-12T04:20:02.888Z,99182.19
2017-10-12T04:22:30.324Z,99188.05
2017-10-12T04:24:57.731Z,99190.30
2017-10-12T04:27:25.136Z,99193.41
2017-10-12T04:29:52.575Z,99199.97
2017-10-12T04:32:20.005Z,99202.60
2017-10-12T04:34:47.435Z,99200.50
2017-10-12T04:37:14.815Z,99213.08
2017-10-12T04:39:42.248Z,99211.27
2017-10-12T04:42:09.639Z,99225.38
2017-10-12T04:44:37.059Z,99229.85
2017-10-12T04:47:04.451Z,99237.53
2017-10-12T04:49:31.883Z,99224.36
2017-10-12T04:51:59.314Z,99225.38
2017-10-12T04:54:26.723Z,99221.66
2017-10-12T04:56:54.164Z,99226.27
2017-10-12T04:59:21.572Z,99230.59
2017-10-12T05:01:49.011Z,99246.84
2017-10-12T05:04:16.438Z,99252.95
2017-10-12T05:06:43.867Z,99260.12
2017-10-12T05:09:11.250Z,99260.12
2017-10-12T05:11:38.712Z,99267.61
2017-10-12T05:14:06.111Z,99273.09
2017-10-12T05:16:33.594Z,99286.86
2017-10-12T05:19:01.015Z,99297.25
2017-10-12T05:21:28.420Z,99284.73
2017-10-12T05:23:55.864Z,99300.17
2017-10-12T05:26:23.256Z,99295.39
2017-10-12T05:28:50.673Z,99297.34
2017-10-12T05:31:18.090Z,99303.55
2017-10-12T05:33:45.601Z,99309.38
2017-10-12T05:36:15.484Z,99310.09
2017-10-12T05:38:44.380Z,99320.92
2017-10-12T05:41:11.772Z,99333.83
2017-10-12T05:43:39.220Z,99336.66
2017-10-12T05:46:06.607Z,99341.98
2017-10-12T05:48:34.013Z,99342.06
2017-10-12T05:51:01.451Z,99346.83
2017-10-12T05:53:28.920Z,99360.91
2017-10-12T05:55:56.327Z,99362.90
2017-10-12T05:58:23.745Z,99365.53
2017-10-12T06:00:51.164Z,99360.59
2017-10-12T06:03:18.555Z,99364.02
2017-10-12T06:05:45.983Z,99367.36
2017-10-12T06:08:13.412Z,99361.61
2017-10-12T06:10:40.884Z,99369.69
2017-10-12T06:13:08.271Z,99371.77
2017-10-12T06:15:35.723Z,99381.23
2017-10-12T06:18:03.911Z,99384.17
2017-10-12T06:20:31.328Z,99389.49
2017-10-12T06:22:58.811Z,99396.73
2017-10-12T06:25:26.215Z,99400.68
2017-10-12T06:27:53.648Z,99402.75
2017-10-12T06:30:22.530Z,99403.88
2017-10-12T06:32:49.944Z,99414.82
2017-10-12T06:35:17.348Z,99427.89
2017-10-12T06:37:44.780Z,99424.65
2017-10-12T06:40:12.196Z,99398.95
2017-10-12T06:42:39.630Z,99425.64
2017-10-12T06:45:07.074Z,99425.56
2017-10-12T06:47:34.499Z,99429.75
2017-10-12T06:50:01.952Z,99431.09
2017-10-12T06:52:29.349Z,99434.66
2017-10-12T06:54:56.763Z,99445.40
2017-10-12T06:57:24.152Z,99449.50
2017-10-12T06:59:51.587Z,99458.89
2017-10-12T07:02:18.985Z,99459.39
2017-10-12T07:04:46.403Z,99467.66
2017-10-12T07:07:13.792Z,99469.44
2017-10-12T07:09:41.342Z,99476.62
2017-10-12T07:12:08.781Z,99482.70
2017-10-12T07:14:36.180Z,99485.66
2017-10-12T07:17:03.632Z,99486.34
2017-10-12T07:19:31.572Z,99472.02
2017-10-12T07:21:58.988Z,99491.37
2017-10-12T07:24:27.202Z,99500.28
2017-10-12T07:26:54.599Z,99493.02
2017-10-12T07:29:22.019Z,99501.33
2017-10-12T07:31:49.480Z,99511.85
2017-10-12T07:34:16.926Z,99512.37
2017-10-12T07:36:44.340Z,99512.46
2017-10-12T07:39:12.096Z,99524.97
2017-10-12T07:41:39.482Z,99525.38
2017-10-12T07:44:06.927Z,99520.87
2017-10-12T07:46:34.322Z,99531.32
2017-10-12T07:49:02.730Z,99533.95
2017-10-12T07:51:30.150Z,99534.64
2017-10-12T07:53:57.604Z,99539.14
2017-10-12T07:56:25.027Z,99536.08
2017-10-12T07:58:52.430Z,99544.39
2017-10-12T08:01:19.872Z,99543.87
2017-10-12T08:03:47.289Z,99547.99
2017-10-12T08:06:14.769Z,99550.83
2017-10-12T08:08:42.188Z,99549.72
2017-10-12T08:11:09.648Z,99547.28
2017-10-12T08:13:37.044Z,99555.37
2017-10-12T08:16:04.491Z,99541.61
2017-10-12T08:18:31.884Z,99554.55
2017-10-12T08:20:59.324Z,99551.77
2017-10-12T08:23:26.765Z,99561.90
2017-10-12T08:25:54.247Z,99566.52
2017-10-12T08:28:21.724Z,99571.00
2017-10-12T08:30:49.167Z,99564.54
2017-10-12T08:33:16.596Z,99563.42
2017-10-12T08:35:44.039Z,99551.48
2017-10-12T08:38:11.495Z,99582.87
2017-10-12T08:40:38.884Z,99586.51
2017-10-12T08:43:06.352Z,99590.20
2017-10-12T08:45:33.764Z,99584.37
2017-10-12T08:48:01.229Z,99575.63
2017-10-12T08:50:28.635Z,99588.14
2017-10-12T08:52:56.176Z,99591.89
2017-10-12T08:55:23.556Z,99626.14
2017-10-12T08:57:50.976Z,99598.92
2017-10-12T09:00:18.371Z,99602.48
2017-10-12T09:02:45.812Z,99599.78
2017-10-12T09:05:13.231Z,99615.30
2017-10-12T09:07:40.651Z,99614.29
2017-10-12T09:10:08.091Z,99620.41
2017-10-12T09:12:48.594Z,99630.02
2017-10-12T09:15:16.083Z,99646.01
2017-10-12T09:17:43.472Z,99629.05
2017-10-12T09:20:10.928Z,99641.67
2017-10-12T09:22:38.344Z,99639.42
2017-10-12T09:25:05.801Z,99652.23
2017-10-12T09:27:33.212Z,99632.78
2017-10-12T09:30:00.624Z,99665.47
2017-10-12T09:32:28.122Z,99664.45
2017-10-12T09:34:55.607Z,99660.48
2017-10-12T09:37:23.246Z,99669.25
2017-10-12T09:39:50.808Z,99681.66
2017-10-12T09:42:20.952Z,99673.75
2017-10-12T09:44:48.368Z,99681.13
2017-10-12T09:47:15.840Z,99674.63
2017-10-12T09:49:43.274Z,99674.92
2017-10-12T09:52:12.528Z,99681.47
2017-10-12T09:54:40.037Z,99667.85
2017-10-12T09:57:07.500Z,99696.02
2017-10-12T09:59:34.917Z,99713.81
2017-10-12T10:02:02.653Z,99702.21
2017-10-12T10:04:30.189Z,99707.16
2017-10-12T10:06:57.615Z,99725.66
2017-10-12T10:09:25.041Z,99717.41
2017-10-12T10:11:52.638Z,99718.84
2017-10-12T10:14:20.057Z,99721.05
2017-10-12T10:16:47.445Z,99734.42
2017-10-12T10:19:14.885Z,99742.44
2017-10-12T10:21:42.297Z,99745.41
2017-10-12T10:24:09.766Z,99742.42
2017-10-12T10:26:37.183Z,99750.34
2017-10-12T10:29:04.613Z,99747.52
2017-10-12T10:31:32.007Z,99744.88
2017-10-12T10:36:36.264Z,99757.41
2017-10-12T10:39:03.712Z,99761.82
2017-10-12T10:41:31.156Z,99756.98
2017-10-12T10:43:58.549Z,99755.45
2017-10-12T10:46:25.995Z,99754.81
2017-10-12T10:48:53.409Z,99745.95
2017-10-12T10:51:20.844Z,99750.06
2017-10-12T10:53:48.252Z,99748.00
2017-10-12T10:56:15.671Z,99751.76
2017-10-12T10:58:43.104Z,99757.22
2017-10-12T11:01:10.527Z,99743.91
2017-10-12T11:03:37.935Z,99716.53
2017-10-12T11:06:05.358Z,99742.55
2017-10-12T11:08:32.751Z,99733.75
2017-10-12T11:11:00.220Z,99739.25
2017-10-12T11:13:27.607Z,99749.89
2017-10-12T11:15:55.033Z,99744.05
2017-10-12T11:18:22.453Z,99757.64
2017-10-12T11:20:49.886Z,99748.45
2017-10-12T11:23:17.329Z,99738.08
2017-10-12T11:25:44.722Z,99733.19
2017-10-12T11:28:12.972Z,99728.29
2017-10-12T11:30:40.426Z,99735.42
2017-10-12T11:33:07.812Z,99724.75
2017-10-12T11:35:35.256Z,99729.48
2017-10-12T11:38:03.290Z,99720.94
2017-10-12T11:40:30.704Z,99725.95
2017-10-12T11:42:58.112Z,99727.73
2017-10-12T11:45:25.584Z,99713.44
2017-10-12T11:47:53.010Z,99735.18
2017-10-12T11:50:20.428Z,99723.55
2017-10-12T11:52:47.843Z,99723.31
2017-10-12T11:55:15.416Z,99721.98
2017-10-12T11:57:42.871Z,99732.08
2017-10-12T12:00:10.271Z,99729.33
2017-10-12T12:02:37.757Z,99731.73
2017-10-12T12:05:05.238Z,99714.02
2017-10-12T12:07:32.704Z,99727.73
2017-10-12T12:10:00.182Z,99727.16
2017-10-12T12:12:27.656Z,99742.15
2017-10-12T12:14:55.052Z,99734.52
2017-10-12T12:17:22.499Z,99726.08
2017-10-12T12:19:49.926Z,99723.21
2017-10-12T12:22:17.363Z,99726.33
2017-10-12T12:24:44.790Z,99725.52
2017-10-12T12:27:13.030Z,99720.44
2017-10-12T12:29:40.467Z,99727.78
2017-10-12T12:32:07.920Z,99731.22
2017-10-12T12:34:35.338Z,99734.87
2017-10-12T12:37:02.773Z,99720.45
2017-10-12T12:39:30.264Z,99728.65
2017-10-12T12:41:57.691Z,99726.20
2017-10-12T12:44:25.140Z,99736.50
2017-10-12T12:46:52.570Z,99746.01
2017-10-12T12:49:20.110Z,99737.16
2017-10-12T12:51:47.526Z,99737.77
2017-10-12T12:54:15.426Z,99732.30
2017-10-12T12:56:42.860Z,99744.63
2017-10-12T12:59:10.293Z,99744.24
2017-10-12T13:01:37.702Z,99743.41
2017-10-12T13:04:05.162Z,99738.05
2017-10-12T13:06:32.613Z,99740.42
2017-10-12T13:09:00.045Z,99742.16
2017-10-12T13:11:27.488Z,99739.98
2017-10-12T13:13:54.930Z,99742.30
2017-10-12T13:16:22.372Z,99737.01
2017-10-12T13:18:49.824Z,99735.45
2017-10-12T13:21:17.302Z,99735.56
2017-10-12T13:23:44.789Z,99735.08
2017-10-12T13:26:12.286Z,99735.78
2017-10-12T13:28:39.774Z,99733.50
2017-10-12T13:31:07.205Z,99733.65
2017-10-12T13:33:34.627Z,99734.56
2017-10-12T13:36:02.111Z,99728.09
2017-10-12T13:38:29.511Z,99732.69
2017-10-12T13:40:56.980Z,99722.89
2017-10-12T13:43:24.439Z,99720.40
2017-10-12T13:45:51.924Z,99725.76
2017-10-12T13:48:19.502Z,99719.19
2017-10-12T13:50:49.390Z,99724.50
2017-10-12T13:53:16.990Z,99723.50
2017-10-12T13:55:44.692Z,99724.55
2017-10-12T13:58:12.257Z,99717.98
2017-10-12T14:01:09.943Z,99728.96
2017-10-12T14:03:37.532Z,99724.97
2017-10-12T14:06:06.160Z,99727.23
2017-10-12T14:08:33.590Z,99722.19
2017-10-12T14:11:00.979Z,99726.53
2017-10-12T14:13:28.427Z,99731.38
2017-10-12T14:15:55.866Z,99728.20
2017-10-12T14:18:24.171Z,99726.85
2017-10-12T14:20:51.592Z,99725.94
2017-10-12T14:23:19.013Z,99734.38
2017-10-12T14:25:46.455Z,99737.81
2017-10-12T14:28:13.839Z,99733.13
2017-10-12T14:30:41.316Z,99732.59
2017-10-12T14:33:08.720Z,99728.09
2017-10-12T14:35:36.164Z,99726.39
2017-10-12T14:38:03.552Z,99731.30
2017-10-12T14:40:30.996Z,99728.48
2017-10-12T14:42:58.408Z,99739.50
2017-10-12T14:45:27.277Z,99727.48
2017-10-12T14:47:54.669Z,99721.38
2017-10-12T14:50:22.101Z,99726.20
2017-10-12T14:52:49.521Z,99733.70
2017-10-12T14:55:16.959Z,99732.19
2017-10-12T14:57:44.380Z,99730.61
2017-10-12T15:00:12.596Z,99728.67
2017-10-12T15:02:40.037Z,99721.86
2017-10-12T15:05:07.454Z,99683.08
2017-10-12T15:07:34.876Z,99736.28
2017-10-12T15:10:02.388Z,99732.73
2017-10-12T15:12:29.829Z,99705.43
2017-10-12T15:14:57.239Z,99731.59
2017-10-12T15:17:24.867Z,99732.83
2017-10-12T15:19:52.265Z,99736.22
2017-10-12T15:22:19.725Z,99753.42
2017-10-12T15:24:47.884Z,99741.23
2017-10-12T15:27:15.297Z,99744.25
2017-10-12T15:29:42.708Z,99741.28
2017-10-12T15:32:10.219Z,99747.42
2017-10-12T15:34:37.660Z,99743.91
2017-10-12T15:37:05.060Z,99747.85
2017-10-12T15:39:32.503Z,99755.41
2017-10-12T15:42:00.763Z,99757.72
2017-10-12T15:44:28.204Z,99752.33
2017-10-12T15:46:55.628Z,99769.29
2017-10-12T15:49:23.054Z,99756.73
2017-10-12T15:51:50.992Z,99750.90
2017-10-12T15:54:18.932Z,99761.59
2017-10-12T15:56:46.369Z,99759.84
2017-10-12T15:59:13.762Z,99761.84
2017-10-12T16:01:41.172Z,99757.90
2017-10-12T16:04:08.584Z,99770.45
2017-10-12T16:06:36.074Z,99769.14
2017-10-12T16:09:03.481Z,99779.71
2017-10-12T16:11:31.635Z,99776.34
2017-10-12T16:13:59.039Z,99774.36
2017-10-12T16:16:26.511Z,99772.46
2017-10-12T16:18:53.903Z,99776.17
2017-10-12T16:21:21.303Z,99775.84
2017-10-12T16:23:48.752Z,99778.58
2017-10-12T16:26:16.133Z,99779.22
2017-10-12T16:28:43.548Z,99771.42
2017-10-12T16:31:10.940Z,99769.28
2017-10-12T16:33:38.365Z,99779.98
2017-10-12T16:36:05.760Z,99779.66
2017-10-12T16:38:33.193Z,99770.44
2017-10-12T16:41:00.608Z,99782.80
2017-10-12T16:43:28.062Z,99785.70
2017-10-12T16:45:55.467Z,99794.08
2017-10-12T16:48:22.915Z,99800.16
2017-10-12T16:53:17.724Z,99796.98
2017-10-12T16:55:45.149Z,99805.50
2017-10-12T16:58:12.541Z,99804.78
2017-10-12T17:00:40.524Z,99819.38
2017-10-12T17:03:07.912Z,99814.27
2017-10-12T17:05:35.406Z,99812.28
2017-10-12T17:08:02.869Z,99816.00
2017-10-12T17:10:30.284Z,99821.55
2017-10-12T17:12:57.725Z,99821.62
2017-10-12T17:15:25.141Z,99823.84
2017-10-12T17:17:52.618Z,99824.14
2017-10-12T17:20:20.106Z,99821.62
2017-10-12T17:22:47.622Z,99834.30
2017-10-12T17:25:15.155Z,99833.61
2017-10-12T17:27:42.720Z,99836.84
2017-10-12T17:30:10.273Z,99832.61
2017-10-12T17:32:37.833Z,99840.06
2017-10-12T17:35:05.480Z,99841.91
2017-10-12T17:37:33.176Z,99845.00
2017-10-12T17:40:00.879Z,99843.81
2017-10-12T17:42:28.458Z,99840.88
2017-10-12T17:44:56.127Z,99832.92
2017-10-12T17:47:23.806Z,99842.64
2017-10-12T17:49:51.485Z,99846.91
2017-10-12T17:52:19.156Z,99843.19
2017-10-12T17:54:46.808Z,99841.12
2017-10-12T17:57:14.511Z,99845.19
2017-10-12T17:59:42.227Z,99837.07
2017-10-12T18:02:09.895Z,99841.34
2017-10-12T18:07:05.468Z,99840.16
2017-10-12T18:09:32.996Z,99842.80
2017-10-12T18:12:30.517Z,99848.37
2017-10-12T18:14:28.314Z,99850.95
2017-10-12T18:16:55.846Z,99858.24
2017-10-12T18:19:23.399Z,99860.90
2017-10-12T18:21:50.898Z,99858.50
2017-10-12T18:24:18.534Z,99856.78
2017-10-12T18:26:46.207Z,99859.36
2017-10-12T18:29:13.856Z,99865.00
2017-10-12T18:31:41.493Z,99861.02
2017-10-12T18:34:09.055Z,99861.19
2017-10-12T18:36:36.530Z,99866.65
2017-10-12T18:39:03.988Z,99862.95
2017-10-12T18:41:31.459Z,99867.02
2017-10-12T18:43:58.926Z,99864.64
2017-10-12T18:46:26.386Z,99865.80
2017-10-12T18:48:53.897Z,99870.13
2017-10-12T18:51:21.346Z,99879.98
2017-10-12T18:53:48.803Z,99878.75
2017-10-12T18:56:16.212Z,99878.10
2017-10-12T18:58:43.637Z,99876.77
2017-10-12T19:01:11.069Z,99872.25
2017-10-12T19:03:38.506Z,99875.58
2017-10-12T19:06:05.941Z,99865.47
2017-10-12T19:08:33.398Z,99878.93
2017-10-12T19:11:00.796Z,99884.40
2017-10-12T19:13:28.208Z,99875.98
2017-10-12T19:15:55.669Z,99880.50
2017-10-12T19:18:23.059Z,99891.59
2017-10-12T19:20:50.515Z,99882.92
2017-10-12T19:23:19.239Z,99887.57
2017-10-12T19:25:46.698Z,99890.54
2017-10-12T19:28:43.557Z,99882.72
2017-10-12T19:30:41.541Z,99884.30
2017-10-12T19:33:09.009Z,99885.02
2017-10-12T19:35:36.387Z,99893.19
2017-10-12T19:38:03.784Z,99895.69
2017-10-12T19:40:31.226Z,99895.17
2017-10-12T19:42:58.610Z,99896.61
2017-10-12T19:45:26.026Z,99895.84
2017-10-12T19:47:53.416Z,99894.92
2017-10-12T19:50:20.845Z,99896.20
2017-10-12T19:52:48.260Z,99898.91
2017-10-12T19:55:16.464Z,99901.29
2017-10-12T19:57:43.888Z,99897.98
2017-10-12T20:00:11.313Z,99903.73
2017-10-12T20:02:38.724Z,99906.52
2017-10-12T20:05:07.570Z,99910.92
2017-10-12T20:07:35.001Z,99906.80
2017-10-12T20:10:02.461Z,99906.00
2017-10-12T20:12:29.931Z,99892.06
2017-10-12T20:14:58.108Z,99914.55
2017-10-12T20:17:25.492Z,99911.53
2017-10-12T20:19:53.893Z,99918.36
2017-10-12T20:22:22.104Z,99924.11
2017-10-12T20:24:49.586Z,99925.44
2017-10-12T20:27:16.996Z,99920.17
2017-10-12T20:29:44.767Z,99917.91
2017-10-12T20:32:12.163Z,99918.78
2017-10-12T20:34:39.613Z,99914.38
2017-10-12T20:37:07.028Z,99913.97
2017-10-12T20:39:34.492Z,99916.56
2017-10-12T20:42:16.886Z,99904.88
2017-10-12T20:44:29.349Z,99922.67
2017-10-12T20:49:24.323Z,99919.89
2017-10-12T20:51:51.783Z,99916.94
2017-10-12T20:54:19.216Z,99917.16
2017-10-12T20:56:46.616Z,99914.78
2017-10-12T20:59:14.147Z,99924.23
2017-10-12T21:01:41.585Z,99927.17
2017-10-12T21:04:09.017Z,99927.47
2017-10-12T21:06:36.461Z,99927.76
2017-10-12T21:09:03.884Z,99929.21
2017-10-12T21:11:31.287Z,99933.45
2017-10-12T21:13:58.730Z,99929.26
2017-10-12T21:16:26.899Z,99927.66
2017-10-12T21:18:54.323Z,99932.58
2017-10-12T21:21:21.731Z,99942.72
2017-10-12T21:23:49.213Z,99942.84
2017-10-12T21:26:16.637Z,99946.59
2017-10-12T21:28:44.038Z,99944.28
2017-10-12T21:31:11.457Z,99943.35
2017-10-12T21:33:38.855Z,99941.50
2017-10-12T21:36:06.275Z,99927.94
2017-10-12T21:38:33.685Z,99949.89
2017-10-12T21:41:01.159Z,99955.09
2017-10-12T21:43:28.578Z,99950.58
2017-10-12T21:45:55.992Z,99951.80
2017-10-12T21:48:23.728Z,99949.25
2017-10-12T21:50:51.168Z,99944.35
2017-10-12T21:53:18.577Z,99948.75
2017-10-12T21:55:46.015Z,99943.05
2017-10-12T21:58:13.439Z,99945.97
2017-10-12T22:00:40.859Z,99945.85
2017-10-12T22:03:08.288Z,99951.42
2017-10-12T22:05:35.707Z,99948.91
2017-10-12T22:08:03.115Z,99958.75
2017-10-12T22:10:30.543Z,99950.63
2017-10-12T22:12:57.961Z,99959.14
2017-10-12T22:15:25.368Z,99953.96
2017-10-12T22:17:52.801Z,99953.96
2017-10-12T22:20:20.223Z,99954.75
2017-10-12T22:22:47.654Z,99951.81
2017-10-12T22:25:15.052Z,99949.70
2017-10-12T22:27:42.472Z,99952.48
2017-10-12T22:30:09.931Z,99955.03
2017-10-12T22:32:37.383Z,99953.94
2017-10-12T22:35:04.792Z,99955.41
2017-10-12T22:37:32.205Z,99953.55
2017-10-12T22:39:59.631Z,99954.48
2017-10-12T22:42:27.052Z,99952.21
2017-10-12T22:44:55.075Z,99953.94
2017-10-12T22:47:22.464Z,99952.09
2017-10-12T22:49:49.920Z,99954.50
2017-10-12T22:52:17.351Z,99933.84
2017-10-12T22:54:44.800Z,99960.86
2017-10-12T22:57:12.188Z,99961.94
2017-10-12T22:59:39.615Z,99968.60
2017-10-12T23:02:07.020Z,99959.16
2017-10-12T23:04:34.455Z,99960.89
2017-10-12T23:07:01.869Z,99958.23
2017-10-12T23:09:29.280Z,99948.36
2017-10-12T23:11:56.700Z,99960.20
2017-10-12T23:14:24.123Z,99958.88
2017-10-12T23:16:51.533Z,99957.95
2017-10-12T23:19:19.027Z,99957.30
2017-10-12T23:21:46.459Z,99960.88
2017-10-12T23:24:13.888Z,99963.67
2017-10-12T23:26:41.324Z,99957.56
2017-10-12T23:29:08.716Z,99954.49
2017-10-12T23:31:36.144Z,99955.95
2017-10-12T23:34:03.554Z,99957.14
2017-10-12T23:36:30.986Z,99958.88
2017-10-12T23:38:58.395Z,99954.89
2017-10-12T23:41:25.799Z,99965.41
2017-10-12T23:43:53.252Z,99950.08
2017-10-12T23:46:20.640Z,99961.66
2017-10-12T23:48:48.070Z,99965.23
2017-10-12T23:51:15.513Z,99974.53
2017-10-12T23:53:42.952Z,99962.19
2017-10-12T23:56:10.360Z,99965.14
2017-10-12T23:58:37.784Z,99961.82
